Terminal Aerodrome Forecast
Issued by NWS Wichita, KS

Home | Current Version | Previous Version | Graphics & Text | Print | Product List | Glossary On
Versions: 1 2 3 4 5 6 7 8 9 10 11 12
867
FTUS43 KICT 221132
TAFICT
TAF
KICT 221132Z 2212/2312 15013KT P6SM SCT130
     FM221500 17017G25KT P6SM SCT130
     FM221800 18022G26KT P6SM SCT050=

USA.gov is the U.S. government's official web portal to all federal, state and local government web resources and services.